sensor_id;sensor_type;location;lat;lon;timestamp;temperature;humidity
25058;DHT22;13057;50.978;11.034;2023-01-01T00:01:29;15.10;98.00
25058;DHT22;13057;50.978;11.034;2023-01-01T00:03:58;15.00;98.40
25058;DHT22;13057;50.978;11.034;2023-01-01T00:06:24;15.10;98.10
25058;DHT22;13057;50.978;11.034;2023-01-01T00:08:50;15.10;98.00
25058;DHT22;13057;50.978;11.034;2023-01-01T00:11:36;15.00;97.90
25058;DHT22;13057;50.978;11.034;2023-01-01T00:14:02;15.00;97.90
25058;DHT22;13057;50.978;11.034;2023-01-01T00:16:28;15.00;97.90
25058;DHT22;13057;50.978;11.034;2023-01-01T00:18:54;15.00;97.80
25058;DHT22;13057;50.978;11.034;2023-01-01T00:21:20;14.90;97.80
25058;DHT22;13057;50.978;11.034;2023-01-01T00:23:46;14.90;97.80
25058;DHT22;13057;50.978;11.034;2023-01-01T00:26:15;14.90;97.90
25058;DHT22;13057;50.978;11.034;2023-01-01T00:28:42;14.90;97.90
25058;DHT22;13057;50.978;11.034;2023-01-01T00:31:10;14.90;97.80
25058;DHT22;13057;50.978;11.034;2023-01-01T00:33:36;14.90;97.80
25058;DHT22;13057;50.978;11.034;2023-01-01T00:36:08;14.90;98.00
25058;DHT22;13057;50.978;11.034;2023-01-01T00:38:34;14.90;97.80
25058;DHT22;13057;50.978;11.034;2023-01-01T00:41:00;14.90;98.10
25058;DHT22;13057;50.978;11.034;2023-01-01T00:43:26;14.90;97.80
25058;DHT22;13057;50.978;11.034;2023-01-01T00:45:52;14.90;97.90
25058;DHT22;13057;50.978;11.034;2023-01-01T00:48:18;14.90;97.80
25058;DHT22;13057;50.978;11.034;2023-01-01T00:50:46;14.80;97.80
25058;DHT22;13057;50.978;11.034;2023-01-01T00:53:12;14.80;97.80
25058;DHT22;13057;50.978;11.034;2023-01-01T00:55:39;14.80;97.90
25058;DHT22;13057;50.978;11.034;2023-01-01T00:58:05;14.80;98.00
25058;DHT22;13057;50.978;11.034;2023-01-01T01:00:31;14.80;98.00
25058;DHT22;13057;50.978;11.034;2023-01-01T01:02:57;14.70;98.00
25058;DHT22;13057;50.978;11.034;2023-01-01T01:05:23;14.70;97.90
25058;DHT22;13057;50.978;11.034;2023-01-01T01:07:49;14.70;97.80
25058;DHT22;13057;50.978;11.034;2023-01-01T01:10:16;14.70;97.70
25058;DHT22;13057;50.978;11.034;2023-01-01T01:12:42;14.70;97.70
25058;DHT22;13057;50.978;11.034;2023-01-01T01:15:09;14.70;97.90
25058;DHT22;13057;50.978;11.034;2023-01-01T01:17:35;14.70;97.80
25058;DHT22;13057;50.978;11.034;2023-01-01T01:20:01;14.60;97.90
25058;DHT22;13057;50.978;11.034;2023-01-01T01:22:27;14.60;97.80
25058;DHT22;13057;50.978;11.034;2023-01-01T01:25:08;14.60;97.90
25058;DHT22;13057;50.978;11.034;2023-01-01T01:27:34;14.60;97.90
25058;DHT22;13057;50.978;11.034;2023-01-01T01:30:00;14.60;97.90
25058;DHT22;13057;50.978;11.034;2023-01-01T01:32:26;14.60;97.90
25058;DHT22;13057;50.978;11.034;2023-01-01T01:34:52;14.60;98.00
25058;DHT22;13057;50.978;11.034;2023-01-01T01:37:18;14.60;98.10
25058;DHT22;13057;50.978;11.034;2023-01-01T01:39:43;14.50;98.30
25058;DHT22;13057;50.978;11.034;2023-01-01T01:42:16;14.60;98.10
25058;DHT22;13057;50.978;11.034;2023-01-01T01:44:51;14.60;98.10
25058;DHT22;13057;50.978;11.034;2023-01-01T01:47:45;14.60;98.10
25058;DHT22;13057;50.978;11.034;2023-01-01T01:50:24;14.60;97.90
25058;DHT22;13057;50.978;11.034;2023-01-01T01:53:05;14.60;98.00
25058;DHT22;13057;50.978;11.034;2023-01-01T01:55:36;14.60;97.90
25058;DHT22;13057;50.978;11.034;2023-01-01T01:58:03;14.50;98.00
25058;DHT22;13057;50.978;11.034;2023-01-01T02:00:30;14.50;98.00
25058;DHT22;13057;50.978;11.034;2023-01-01T02:03:01;14.50;98.10
25058;DHT22;13057;50.978;11.034;2023-01-01T02:05:29;14.50;97.90
25058;DHT22;13057;50.978;11.034;2023-01-01T02:07:56;14.50;97.80
25058;DHT22;13057;50.978;11.034;2023-01-01T02:10:23;14.60;98.10
25058;DHT22;13057;50.978;11.034;2023-01-01T02:12:49;14.50;97.80
25058;DHT22;13057;50.978;11.034;2023-01-01T02:15:15;14.60;97.70
25058;DHT22;13057;50.978;11.034;2023-01-01T02:17:54;14.60;97.80
25058;DHT22;13057;50.978;11.034;2023-01-01T02:20:33;14.60;97.70
25058;DHT22;13057;50.978;11.034;2023-01-01T02:23:14;14.60;97.70
25058;DHT22;13057;50.978;11.034;2023-01-01T02:28:48;14.50;97.60
25058;DHT22;13057;50.978;11.034;2023-01-01T02:31:24;14.50;97.40
25058;DHT22;13057;50.978;11.034;2023-01-01T02:33:54;14.50;97.70
25058;DHT22;13057;50.978;11.034;2023-01-01T02:36:22;14.50;97.60
25058;DHT22;13057;50.978;11.034;2023-01-01T02:38:52;14.50;97.50
25058;DHT22;13057;50.978;11.034;2023-01-01T02:41:29;14.50;97.70
25058;DHT22;13057;50.978;11.034;2023-01-01T02:43:56;14.50;97.70
25058;DHT22;13057;50.978;11.034;2023-01-01T02:46:22;14.50;97.70
25058;DHT22;13057;50.978;11.034;2023-01-01T02:48:50;14.50;97.60
25058;DHT22;13057;50.978;11.034;2023-01-01T02:51:34;14.50;97.60
25058;DHT22;13057;50.978;11.034;2023-01-01T02:57:07;14.50;97.80
25058;DHT22;13057;50.978;11.034;2023-01-01T02:59:59;14.50;97.80
25058;DHT22;13057;50.978;11.034;2023-01-01T03:03:02;14.40;97.80
25058;DHT22;13057;50.978;11.034;2023-01-01T03:05:35;14.50;97.90
25058;DHT22;13057;50.978;11.034;2023-01-01T03:08:30;14.50;98.20
25058;DHT22;13057;50.978;11.034;2023-01-01T03:11:16;14.40;97.80
25058;DHT22;13057;50.978;11.034;2023-01-01T03:13:53;14.40;98.10
25058;DHT22;13057;50.978;11.034;2023-01-01T03:16:30;14.40;98.10
25058;DHT22;13057;50.978;11.034;2023-01-01T03:19:11;14.40;98.10
25058;DHT22;13057;50.978;11.034;2023-01-01T03:21:47;14.40;98.20
25058;DHT22;13057;50.978;11.034;2023-01-01T03:24:22;14.40;98.30
25058;DHT22;13057;50.978;11.034;2023-01-01T03:26:52;14.40;98.30
25058;DHT22;13057;50.978;11.034;2023-01-01T03:29:20;14.40;98.30
25058;DHT22;13057;50.978;11.034;2023-01-01T03:31:48;14.40;98.50
25058;DHT22;13057;50.978;11.034;2023-01-01T03:34:23;14.40;98.40
25058;DHT22;13057;50.978;11.034;2023-01-01T03:36:55;14.40;98.60
25058;DHT22;13057;50.978;11.034;2023-01-01T03:39:27;14.40;98.70
25058;DHT22;13057;50.978;11.034;2023-01-01T03:42:07;14.40;98.80
25058;DHT22;13057;50.978;11.034;2023-01-01T03:44:42;14.40;99.20
25058;DHT22;13057;50.978;11.034;2023-01-01T03:47:09;14.40;98.80
25058;DHT22;13057;50.978;11.034;2023-01-01T03:49:35;14.40;98.80
25058;DHT22;13057;50.978;11.034;2023-01-01T03:52:20;14.40;98.90
25058;DHT22;13057;50.978;11.034;2023-01-01T03:55:03;14.30;99.00
25058;DHT22;13057;50.978;11.034;2023-01-01T03:57:32;14.30;99.10
25058;DHT22;13057;50.978;11.034;2023-01-01T04:00:07;14.30;99.70
25058;DHT22;13057;50.978;11.034;2023-01-01T04:02:39;14.30;99.20
25058;DHT22;13057;50.978;11.034;2023-01-01T04:05:08;14.30;99.20
25058;DHT22;13057;50.978;11.034;2023-01-01T04:07:35;14.20;99.10
25058;DHT22;13057;50.978;11.034;2023-01-01T04:10:02;14.30;99.00
25058;DHT22;13057;50.978;11.034;2023-01-01T04:12:48;14.30;99.20
25058;DHT22;13057;50.978;11.034;2023-01-01T04:15:17;14.30;98.90
25058;DHT22;13057;50.978;11.034;2023-01-01T04:17:44;14.30;99.00
25058;DHT22;13057;50.978;11.034;2023-01-01T04:20:10;14.30;99.00
25058;DHT22;13057;50.978;11.034;2023-01-01T04:22:37;14.30;98.70
25058;DHT22;13057;50.978;11.034;2023-01-01T04:25:03;14.30;98.60
25058;DHT22;13057;50.978;11.034;2023-01-01T04:27:29;14.30;98.40
25058;DHT22;13057;50.978;11.034;2023-01-01T04:29:55;14.30;98.40
25058;DHT22;13057;50.978;11.034;2023-01-01T04:32:21;14.40;98.40
25058;DHT22;13057;50.978;11.034;2023-01-01T04:34:47;14.40;98.20
25058;DHT22;13057;50.978;11.034;2023-01-01T04:37:13;14.40;98.20
25058;DHT22;13057;50.978;11.034;2023-01-01T04:39:39;14.40;98.20
25058;DHT22;13057;50.978;11.034;2023-01-01T04:42:05;14.30;98.10
25058;DHT22;13057;50.978;11.034;2023-01-01T04:44:31;14.40;98.10
25058;DHT22;13057;50.978;11.034;2023-01-01T04:46:57;14.30;98.20
25058;DHT22;13057;50.978;11.034;2023-01-01T04:49:23;14.30;98.20
25058;DHT22;13057;50.978;11.034;2023-01-01T04:51:49;14.30;98.20
25058;DHT22;13057;50.978;11.034;2023-01-01T04:54:15;14.30;98.20
25058;DHT22;13057;50.978;11.034;2023-01-01T04:56:41;14.30;98.40
25058;DHT22;13057;50.978;11.034;2023-01-01T04:59:07;14.30;97.80
25058;DHT22;13057;50.978;11.034;2023-01-01T05:01:32;14.30;97.80
25058;DHT22;13057;50.978;11.034;2023-01-01T05:03:59;14.30;97.90
25058;DHT22;13057;50.978;11.034;2023-01-01T05:06:26;14.30;97.90
25058;DHT22;13057;50.978;11.034;2023-01-01T05:08:53;14.30;97.80
25058;DHT22;13057;50.978;11.034;2023-01-01T05:11:21;14.30;97.90
25058;DHT22;13057;50.978;11.034;2023-01-01T05:13:49;14.30;97.90
25058;DHT22;13057;50.978;11.034;2023-01-01T05:16:18;14.30;97.80
25058;DHT22;13057;50.978;11.034;2023-01-01T05:18:44;14.30;97.90
25058;DHT22;13057;50.978;11.034;2023-01-01T05:21:14;14.20;98.00
25058;DHT22;13057;50.978;11.034;2023-01-01T05:23:41;14.20;97.90
25058;DHT22;13057;50.978;11.034;2023-01-01T05:26:08;14.30;98.00
25058;DHT22;13057;50.978;11.034;2023-01-01T05:28:35;14.20;97.90
25058;DHT22;13057;50.978;11.034;2023-01-01T05:31:05;14.30;98.00
25058;DHT22;13057;50.978;11.034;2023-01-01T05:33:31;14.30;98.00
25058;DHT22;13057;50.978;11.034;2023-01-01T05:35:57;14.30;98.00
25058;DHT22;13057;50.978;11.034;2023-01-01T05:38:23;14.30;98.10
25058;DHT22;13057;50.978;11.034;2023-01-01T05:40:49;14.20;98.20
25058;DHT22;13057;50.978;11.034;2023-01-01T05:43:16;14.20;98.20
25058;DHT22;13057;50.978;11.034;2023-01-01T05:45:42;14.20;98.40
25058;DHT22;13057;50.978;11.034;2023-01-01T05:48:10;14.20;98.50
25058;DHT22;13057;50.978;11.034;2023-01-01T05:50:36;14.20;98.60
25058;DHT22;13057;50.978;11.034;2023-01-01T05:53:02;14.20;98.60
25058;DHT22;13057;50.978;11.034;2023-01-01T05:55:28;14.20;98.70
25058;DHT22;13057;50.978;11.034;2023-01-01T05:57:55;14.20;98.80
25058;DHT22;13057;50.978;11.034;2023-01-01T06:00:21;14.20;98.80
25058;DHT22;13057;50.978;11.034;2023-01-01T06:02:47;14.20;98.90
25058;DHT22;13057;50.978;11.034;2023-01-01T06:05:16;14.20;99.10
25058;DHT22;13057;50.978;11.034;2023-01-01T06:07:42;14.20;99.10
25058;DHT22;13057;50.978;11.034;2023-01-01T06:10:08;14.10;99.20
25058;DHT22;13057;50.978;11.034;2023-01-01T06:12:34;14.20;99.30
25058;DHT22;13057;50.978;11.034;2023-01-01T06:15:00;14.10;99.40
25058;DHT22;13057;50.978;11.034;2023-01-01T06:17:26;14.20;99.40
25058;DHT22;13057;50.978;11.034;2023-01-01T06:19:51;14.20;99.50
25058;DHT22;13057;50.978;11.034;2023-01-01T06:22:17;14.10;99.60
25058;DHT22;13057;50.978;11.034;2023-01-01T06:24:43;14.10;99.60
25058;DHT22;13057;50.978;11.034;2023-01-01T06:27:09;14.10;99.50
25058;DHT22;13057;50.978;11.034;2023-01-01T06:29:35;14.20;99.70
25058;DHT22;13057;50.978;11.034;2023-01-01T06:32:01;14.10;99.40
25058;DHT22;13057;50.978;11.034;2023-01-01T06:34:26;14.10;99.50
25058;DHT22;13057;50.978;11.034;2023-01-01T06:36:53;14.10;99.60
25058;DHT22;13057;50.978;11.034;2023-01-01T06:39:21;14.10;99.60
25058;DHT22;13057;50.978;11.034;2023-01-01T06:41:47;14.10;99.60
25058;DHT22;13057;50.978;11.034;2023-01-01T06:44:12;14.10;99.50
25058;DHT22;13057;50.978;11.034;2023-01-01T06:46:39;14.00;99.60
25058;DHT22;13057;50.978;11.034;2023-01-01T06:49:08;14.00;99.60
25058;DHT22;13057;50.978;11.034;2023-01-01T06:51:38;14.00;99.80
25058;DHT22;13057;50.978;11.034;2023-01-01T06:54:04;14.00;99.60
25058;DHT22;13057;50.978;11.034;2023-01-01T06:56:31;14.00;99.50
25058;DHT22;13057;50.978;11.034;2023-01-01T06:58:58;14.00;99.50
25058;DHT22;13057;50.978;11.034;2023-01-01T07:01:26;14.00;99.40
25058;DHT22;13057;50.978;11.034;2023-01-01T07:03:55;14.00;99.40
25058;DHT22;13057;50.978;11.034;2023-01-01T07:06:22;14.00;99.40
25058;DHT22;13057;50.978;11.034;2023-01-01T07:08:48;14.00;99.50
25058;DHT22;13057;50.978;11.034;2023-01-01T07:11:14;14.00;99.20
25058;DHT22;13057;50.978;11.034;2023-01-01T07:13:40;14.00;99.20
25058;DHT22;13057;50.978;11.034;2023-01-01T07:16:07;14.00;99.20
25058;DHT22;13057;50.978;11.034;2023-01-01T07:18:32;14.00;99.20
25058;DHT22;13057;50.978;11.034;2023-01-01T07:21:00;14.00;99.20
25058;DHT22;13057;50.978;11.034;2023-01-01T07:23:28;14.00;99.10
25058;DHT22;13057;50.978;11.034;2023-01-01T07:25:55;14.00;99.50
25058;DHT22;13057;50.978;11.034;2023-01-01T07:28:22;14.00;99.10
25058;DHT22;13057;50.978;11.034;2023-01-01T07:30:51;14.00;99.10
25058;DHT22;13057;50.978;11.034;2023-01-01T07:33:20;14.00;99.20
25058;DHT22;13057;50.978;11.034;2023-01-01T07:35:46;14.00;99.20
25058;DHT22;13057;50.978;11.034;2023-01-01T07:38:13;14.00;99.00
25058;DHT22;13057;50.978;11.034;2023-01-01T07:40:40;14.10;99.30
25058;DHT22;13057;50.978;11.034;2023-01-01T07:43:06;14.10;99.30
25058;DHT22;13057;50.978;11.034;2023-01-01T07:45:33;14.10;99.10
25058;DHT22;13057;50.978;11.034;2023-01-01T07:48:00;14.00;99.10
25058;DHT22;13057;50.978;11.034;2023-01-01T07:50:29;14.00;99.10
25058;DHT22;13057;50.978;11.034;2023-01-01T07:52:55;14.00;99.20
25058;DHT22;13057;50.978;11.034;2023-01-01T07:55:21;14.10;99.30
25058;DHT22;13057;50.978;11.034;2023-01-01T07:57:47;14.10;99.40
25058;DHT22;13057;50.978;11.034;2023-01-01T08:00:16;14.10;99.20
25058;DHT22;13057;50.978;11.034;2023-01-01T08:02:43;14.10;99.30
25058;DHT22;13057;50.978;11.034;2023-01-01T08:05:10;14.10;99.20
25058;DHT22;13057;50.978;11.034;2023-01-01T08:07:36;14.00;99.30
25058;DHT22;13057;50.978;11.034;2023-01-01T08:10:03;14.00;99.40
25058;DHT22;13057;50.978;11.034;2023-01-01T08:12:30;14.00;99.40
25058;DHT22;13057;50.978;11.034;2023-01-01T08:14:56;14.00;99.30
25058;DHT22;13057;50.978;11.034;2023-01-01T08:17:21;14.00;99.40
25058;DHT22;13057;50.978;11.034;2023-01-01T08:19:47;14.00;99.50
25058;DHT22;13057;50.978;11.034;2023-01-01T08:22:14;14.00;99.50
25058;DHT22;13057;50.978;11.034;2023-01-01T08:24:40;14.00;99.60
25058;DHT22;13057;50.978;11.034;2023-01-01T08:27:06;14.00;99.50
25058;DHT22;13057;50.978;11.034;2023-01-01T08:29:32;14.00;99.50
25058;DHT22;13057;50.978;11.034;2023-01-01T08:31:59;14.00;99.70
25058;DHT22;13057;50.978;11.034;2023-01-01T08:34:24;14.10;99.70
25058;DHT22;13057;50.978;11.034;2023-01-01T08:36:50;14.10;99.60
25058;DHT22;13057;50.978;11.034;2023-01-01T08:39:16;14.10;99.70
25058;DHT22;13057;50.978;11.034;2023-01-01T08:41:42;14.10;99.70
25058;DHT22;13057;50.978;11.034;2023-01-01T08:44:08;14.10;99.80
25058;DHT22;13057;50.978;11.034;2023-01-01T08:46:34;14.10;99.90
25058;DHT22;13057;50.978;11.034;2023-01-01T08:48:59;14.10;99.80
25058;DHT22;13057;50.978;11.034;2023-01-01T08:51:25;14.10;99.80
25058;DHT22;13057;50.978;11.034;2023-01-01T08:53:51;14.20;99.80
25058;DHT22;13057;50.978;11.034;2023-01-01T08:56:17;14.20;99.70
25058;DHT22;13057;50.978;11.034;2023-01-01T08:58:43;14.20;99.70
25058;DHT22;13057;50.978;11.034;2023-01-01T09:01:10;14.20;99.80
25058;DHT22;13057;50.978;11.034;2023-01-01T09:03:36;14.20;99.80
25058;DHT22;13057;50.978;11.034;2023-01-01T09:06:02;14.20;99.80
25058;DHT22;13057;50.978;11.034;2023-01-01T09:08:28;14.20;99.80
25058;DHT22;13057;50.978;11.034;2023-01-01T09:11:00;14.20;99.90
25058;DHT22;13057;50.978;11.034;2023-01-01T09:13:26;14.30;99.90
25058;DHT22;13057;50.978;11.034;2023-01-01T09:15:52;14.20;99.80
25058;DHT22;13057;50.978;11.034;2023-01-01T09:18:19;14.30;99.90
25058;DHT22;13057;50.978;11.034;2023-01-01T09:20:44;14.30;99.90
25058;DHT22;13057;50.978;11.034;2023-01-01T09:23:11;14.40;99.90
25058;DHT22;13057;50.978;11.034;2023-01-01T09:25:38;14.50;99.70
25058;DHT22;13057;50.978;11.034;2023-01-01T09:28:06;14.60;99.80
25058;DHT22;13057;50.978;11.034;2023-01-01T09:30:34;14.60;99.60
25058;DHT22;13057;50.978;11.034;2023-01-01T09:33:00;14.70;99.70
25058;DHT22;13057;50.978;11.034;2023-01-01T09:35:26;14.70;99.60
25058;DHT22;13057;50.978;11.034;2023-01-01T09:37:53;14.70;99.50
25058;DHT22;13057;50.978;11.034;2023-01-01T09:40:27;14.70;99.50
25058;DHT22;13057;50.978;11.034;2023-01-01T09:43:13;14.80;99.50
25058;DHT22;13057;50.978;11.034;2023-01-01T09:45:54;14.80;99.50
25058;DHT22;13057;50.978;11.034;2023-01-01T09:48:22;14.80;99.40
25058;DHT22;13057;50.978;11.034;2023-01-01T09:50:50;14.80;99.40
25058;DHT22;13057;50.978;11.034;2023-01-01T09:53:24;14.80;99.50
25058;DHT22;13057;50.978;11.034;2023-01-01T09:55:56;14.80;99.50
25058;DHT22;13057;50.978;11.034;2023-01-01T09:58:26;14.80;99.50
25058;DHT22;13057;50.978;11.034;2023-01-01T10:00:55;14.80;99.50
25058;DHT22;13057;50.978;11.034;2023-01-01T10:03:32;14.80;99.80
25058;DHT22;13057;50.978;11.034;2023-01-01T10:06:17;14.80;99.50
25058;DHT22;13057;50.978;11.034;2023-01-01T10:11:49;14.90;99.50
25058;DHT22;13057;50.978;11.034;2023-01-01T10:14:31;14.90;99.40
25058;DHT22;13057;50.978;11.034;2023-01-01T10:17:02;15.00;99.50
25058;DHT22;13057;50.978;11.034;2023-01-01T10:19:36;15.00;99.80
25058;DHT22;13057;50.978;11.034;2023-01-01T10:22:10;15.00;99.30
25058;DHT22;13057;50.978;11.034;2023-01-01T10:24:43;15.00;99.20
25058;DHT22;13057;50.978;11.034;2023-01-01T10:27:30;15.10;99.20
25058;DHT22;13057;50.978;11.034;2023-01-01T10:29:59;15.00;99.20
25058;DHT22;13057;50.978;11.034;2023-01-01T10:32:31;15.10;99.30
25058;DHT22;13057;50.978;11.034;2023-01-01T10:34:58;15.10;99.20
25058;DHT22;13057;50.978;11.034;2023-01-01T10:37:29;15.10;99.30
25058;DHT22;13057;50.978;11.034;2023-01-01T10:39:56;15.10;99.40
25058;DHT22;13057;50.978;11.034;2023-01-01T10:42:22;15.10;99.50
25058;DHT22;13057;50.978;11.034;2023-01-01T10:44:49;15.10;99.40
25058;DHT22;13057;50.978;11.034;2023-01-01T10:47:23;15.20;99.50
25058;DHT22;13057;50.978;11.034;2023-01-01T10:50:00;15.20;99.30
25058;DHT22;13057;50.978;11.034;2023-01-01T10:52:29;15.20;99.40
25058;DHT22;13057;50.978;11.034;2023-01-01T10:54:58;15.30;99.30
25058;DHT22;13057;50.978;11.034;2023-01-01T10:57:33;15.20;99.30
25058;DHT22;13057;50.978;11.034;2023-01-01T11:00:22;15.20;99.40
25058;DHT22;13057;50.978;11.034;2023-01-01T11:03:15;15.20;99.30
25058;DHT22;13057;50.978;11.034;2023-01-01T11:06:00;15.20;99.40
25058;DHT22;13057;50.978;11.034;2023-01-01T11:08:29;15.20;99.70
25058;DHT22;13057;50.978;11.034;2023-01-01T11:10:58;15.20;99.20
25058;DHT22;13057;50.978;11.034;2023-01-01T11:13:24;15.20;99.30
25058;DHT22;13057;50.978;11.034;2023-01-01T11:15:50;15.20;99.30
25058;DHT22;13057;50.978;11.034;2023-01-01T11:18:21;15.20;99.30
25058;DHT22;13057;50.978;11.034;2023-01-01T11:20:55;15.20;99.20
25058;DHT22;13057;50.978;11.034;2023-01-01T11:23:29;15.30;99.30
25058;DHT22;13057;50.978;11.034;2023-01-01T11:25:59;15.30;99.30
25058;DHT22;13057;50.978;11.034;2023-01-01T11:28:26;15.30;99.40
25058;DHT22;13057;50.978;11.034;2023-01-01T11:31:03;15.30;99.30
25058;DHT22;13057;50.978;11.034;2023-01-01T11:33:32;15.40;99.40
25058;DHT22;13057;50.978;11.034;2023-01-01T11:35:59;15.40;99.30
25058;DHT22;13057;50.978;11.034;2023-01-01T11:38:25;15.40;99.30
25058;DHT22;13057;50.978;11.034;2023-01-01T11:40:53;15.40;99.20
25058;DHT22;13057;50.978;11.034;2023-01-01T11:43:24;15.40;99.20
25058;DHT22;13057;50.978;11.034;2023-01-01T11:45:54;15.40;99.20
25058;DHT22;13057;50.978;11.034;2023-01-01T11:48:28;15.40;99.30
25058;DHT22;13057;50.978;11.034;2023-01-01T11:50:56;15.40;99.50
25058;DHT22;13057;50.978;11.034;2023-01-01T11:53:29;15.40;99.50
25058;DHT22;13057;50.978;11.034;2023-01-01T11:56:10;15.40;99.50
25058;DHT22;13057;50.978;11.034;2023-01-01T11:58:49;15.40;99.40
25058;DHT22;13057;50.978;11.034;2023-01-01T12:01:35;15.40;99.50
25058;DHT22;13057;50.978;11.034;2023-01-01T12:04:19;15.40;99.40
25058;DHT22;13057;50.978;11.034;2023-01-01T12:06:53;15.40;99.50
25058;DHT22;13057;50.978;11.034;2023-01-01T12:09:42;15.50;99.50
25058;DHT22;13057;50.978;11.034;2023-01-01T12:14:58;15.40;99.50
25058;DHT22;13057;50.978;11.034;2023-01-01T12:17:36;15.40;99.50
25058;DHT22;13057;50.978;11.034;2023-01-01T12:20:17;15.40;99.50
25058;DHT22;13057;50.978;11.034;2023-01-01T12:22:46;15.40;99.60
25058;DHT22;13057;50.978;11.034;2023-01-01T12:25:15;15.30;99.60
25058;DHT22;13057;50.978;11.034;2023-01-01T12:28:12;15.40;99.60
25058;DHT22;13057;50.978;11.034;2023-01-01T12:31:07;15.40;99.70
25058;DHT22;13057;50.978;11.034;2023-01-01T12:33:57;15.40;99.70
25058;DHT22;13057;50.978;11.034;2023-01-01T12:39:47;15.50;99.50
25058;DHT22;13057;50.978;11.034;2023-01-01T12:42:25;15.50;99.30
25058;DHT22;13057;50.978;11.034;2023-01-01T12:45:26;15.50;99.30
25058;DHT22;13057;50.978;11.034;2023-01-01T12:48:11;15.50;99.30
25058;DHT22;13057;50.978;11.034;2023-01-01T12:50:52;15.50;99.50
25058;DHT22;13057;50.978;11.034;2023-01-01T12:53:45;15.40;99.40
25058;DHT22;13057;50.978;11.034;2023-01-01T12:59:14;15.50;99.40
25058;DHT22;13057;50.978;11.034;2023-01-01T13:01:43;15.50;99.40
25058;DHT22;13057;50.978;11.034;2023-01-01T13:04:13;15.50;99.50
25058;DHT22;13057;50.978;11.034;2023-01-01T13:06:48;15.40;99.60
25058;DHT22;13057;50.978;11.034;2023-01-01T13:09:20;15.50;99.50
25058;DHT22;13057;50.978;11.034;2023-01-01T13:11:50;15.50;99.60
25058;DHT22;13057;50.978;11.034;2023-01-01T13:14:17;15.50;99.60
25058;DHT22;13057;50.978;11.034;2023-01-01T13:16:49;15.40;99.80
25058;DHT22;13057;50.978;11.034;2023-01-01T13:19:23;15.50;99.60
25058;DHT22;13057;50.978;11.034;2023-01-01T13:21:49;15.50;99.50
25058;DHT22;13057;50.978;11.034;2023-01-01T13:24:19;15.50;99.60
25058;DHT22;13057;50.978;11.034;2023-01-01T13:26:45;15.40;99.70
25058;DHT22;13057;50.978;11.034;2023-01-01T13:29:33;15.40;99.80
25058;DHT22;13057;50.978;11.034;2023-01-01T13:32:03;15.30;99.70
25058;DHT22;13057;50.978;11.034;2023-01-01T13:34:35;15.40;99.70
25058;DHT22;13057;50.978;11.034;2023-01-01T13:37:24;15.30;99.80
25058;DHT22;13057;50.978;11.034;2023-01-01T13:39:57;15.30;99.80
25058;DHT22;13057;50.978;11.034;2023-01-01T13:42:36;15.30;99.90
25058;DHT22;13057;50.978;11.034;2023-01-01T13:45:02;15.30;99.90
25058;DHT22;13057;50.978;11.034;2023-01-01T13:47:46;15.30;99.90
25058;DHT22;13057;50.978;11.034;2023-01-01T13:50:32;15.30;99.90
25058;DHT22;13057;50.978;11.034;2023-01-01T13:53:28;15.20;99.90
25058;DHT22;13057;50.978;11.034;2023-01-01T13:56:15;15.30;99.90
25058;DHT22;13057;50.978;11.034;2023-01-01T13:59:00;15.30;99.90
25058;DHT22;13057;50.978;11.034;2023-01-01T14:01:40;15.30;99.90
25058;DHT22;13057;50.978;11.034;2023-01-01T14:04:29;15.30;99.90
25058;DHT22;13057;50.978;11.034;2023-01-01T14:07:00;15.30;99.90
25058;DHT22;13057;50.978;11.034;2023-01-01T14:09:29;15.20;99.90
25058;DHT22;13057;50.978;11.034;2023-01-01T14:11:55;15.20;99.90
25058;DHT22;13057;50.978;11.034;2023-01-01T14:14:26;15.20;99.90
25058;DHT22;13057;50.978;11.034;2023-01-01T14:16:55;15.20;99.90
25058;DHT22;13057;50.978;11.034;2023-01-01T14:19:23;15.20;99.90
25058;DHT22;13057;50.978;11.034;2023-01-01T14:21:50;15.20;99.90
25058;DHT22;13057;50.978;11.034;2023-01-01T14:24:19;15.20;99.90
25058;DHT22;13057;50.978;11.034;2023-01-01T14:26:45;15.20;99.90
25058;DHT22;13057;50.978;11.034;2023-01-01T14:29:19;15.20;99.90
25058;DHT22;13057;50.978;11.034;2023-01-01T14:31:47;15.10;99.90
25058;DHT22;13057;50.978;11.034;2023-01-01T14:34:18;15.20;99.90
25058;DHT22;13057;50.978;11.034;2023-01-01T14:36:50;15.10;99.90
25058;DHT22;13057;50.978;11.034;2023-01-01T14:39:28;15.10;99.90
25058;DHT22;13057;50.978;11.034;2023-01-01T14:42:00;15.10;99.90
25058;DHT22;13057;50.978;11.034;2023-01-01T14:44:35;15.00;99.90
25058;DHT22;13057;50.978;11.034;2023-01-01T14:47:02;15.00;99.90
25058;DHT22;13057;50.978;11.034;2023-01-01T14:49:34;15.00;99.90
25058;DHT22;13057;50.978;11.034;2023-01-01T14:52:07;15.00;99.90
25058;DHT22;13057;50.978;11.034;2023-01-01T14:54:37;14.90;99.90
25058;DHT22;13057;50.978;11.034;2023-01-01T14:57:12;14.90;99.90
25058;DHT22;13057;50.978;11.034;2023-01-01T14:59:47;14.90;99.90
25058;DHT22;13057;50.978;11.034;2023-01-01T15:02:19;14.80;99.90
25058;DHT22;13057;50.978;11.034;2023-01-01T15:04:47;14.80;99.90
25058;DHT22;13057;50.978;11.034;2023-01-01T15:07:21;14.80;99.90
25058;DHT22;13057;50.978;11.034;2023-01-01T15:09:48;14.80;99.90
25058;DHT22;13057;50.978;11.034;2023-01-01T15:12:14;14.80;99.90
25058;DHT22;13057;50.978;11.034;2023-01-01T15:14:43;14.70;99.90
25058;DHT22;13057;50.978;11.034;2023-01-01T15:17:13;14.80;99.90
25058;DHT22;13057;50.978;11.034;2023-01-01T15:19:41;14.70;99.90
25058;DHT22;13057;50.978;11.034;2023-01-01T15:22:19;14.70;99.90
25058;DHT22;13057;50.978;11.034;2023-01-01T15:24:48;14.70;99.90
25058;DHT22;13057;50.978;11.034;2023-01-01T15:27:24;14.70;99.90
25058;DHT22;13057;50.978;11.034;2023-01-01T15:29:52;14.70;99.90
25058;DHT22;13057;50.978;11.034;2023-01-01T15:34:52;14.70;99.90
25058;DHT22;13057;50.978;11.034;2023-01-01T15:37:22;14.70;99.90
25058;DHT22;13057;50.978;11.034;2023-01-01T15:39:58;14.70;99.90
25058;DHT22;13057;50.978;11.034;2023-01-01T15:42:36;14.60;99.90
25058;DHT22;13057;50.978;11.034;2023-01-01T15:45:19;14.60;99.90
25058;DHT22;13057;50.978;11.034;2023-01-01T15:47:47;14.60;99.90
25058;DHT22;13057;50.978;11.034;2023-01-01T15:50:34;14.50;99.90
25058;DHT22;13057;50.978;11.034;2023-01-01T15:53:07;14.50;99.90
25058;DHT22;13057;50.978;11.034;2023-01-01T15:55:36;14.50;99.90
25058;DHT22;13057;50.978;11.034;2023-01-01T15:58:19;14.50;99.90